KABQ/ABQ METAR and TAF weather

Enter ICAO airport designator
Station Type Date Time Source
KABQ METAR 2019/06/26 17:52 UTC NOAA

KABQ 261752Z 19008KT 10SM FEW140 FEW180 SCT220 31/02 A3017 RMK AO2 SLP117 T03060017 10306 20167 56008


Station Type Date Time Source
KABQ Decoded METAR 2019/06/26 17:52 UTC NOAA

ALBUQUERQUE INTERNATIONAL AIRPORT, NM, United States (KABQ) 35-02N 106-36W 1618M
Jun 26, 2019 - 01:52 PM EDT / 2019.06.26 1752 UTC
Wind: from the S (190 degrees) at 9 MPH (8 KT):0
Visibility: 10 mile(s):0
Sky conditions: partly cloudy
Temperature: 87.1 F (30.6 C)
Dew Point: 35.1 F (1.7 C)
Relative Humidity: 15%
Pressure (altimeter): 30.17 in. Hg (1021 hPa)
Pressure tendency: 0.02 inches (0.8 hPa) lower than three hours ago
ob: KABQ 261752Z 19008KT 10SM FEW140 FEW180 SCT220 31/02 A3017 RMK AO2 SLP117 T03060017 10306 20167 56008
cycle: 18

Station Type Date Time Source
KABQ TAF 2019/06/26 18:33 UTC NOAA

TAF KABQ 261731Z 2618/2718 21010G18KT P6SM SCT200
FM262100 22012G18KT P6SM VCSH SCT120
TEMPO 2622/2624 VRB25G38KT
FM270000 13012G18KT P6SM SCT110
FM270500 10006KT P6SM SCT110

Example: see airport list